sensor_id;sensor_type;location;lat;lon;timestamp;P1;durP1;ratioP1;P2;durP2;ratioP2
7813;SDS011;3952;48.364;16.022;2023-03-21T00:00:13;10.67;;;9.97;;
7813;SDS011;3952;48.364;16.022;2023-03-21T00:02:41;11.30;;;10.47;;
7813;SDS011;3952;48.364;16.022;2023-03-21T00:05:08;10.47;;;9.67;;
7813;SDS011;3952;48.364;16.022;2023-03-21T00:07:35;11.10;;;10.13;;
7813;SDS011;3952;48.364;16.022;2023-03-21T00:10:03;10.63;;;9.83;;
7813;SDS011;3952;48.364;16.022;2023-03-21T00:12:32;10.90;;;10.10;;
7813;SDS011;3952;48.364;16.022;2023-03-21T00:15:02;11.03;;;10.17;;
7813;SDS011;3952;48.364;16.022;2023-03-21T00:17:31;11.73;;;10.83;;
7813;SDS011;3952;48.364;16.022;2023-03-21T00:19:58;11.93;;;11.07;;
7813;SDS011;3952;48.364;16.022;2023-03-21T00:22:26;11.47;;;10.57;;
7813;SDS011;3952;48.364;16.022;2023-03-21T00:24:54;11.57;;;10.63;;
7813;SDS011;3952;48.364;16.022;2023-03-21T00:27:21;11.37;;;10.57;;
7813;SDS011;3952;48.364;16.022;2023-03-21T00:29:50;10.80;;;10.10;;
7813;SDS011;3952;48.364;16.022;2023-03-21T00:32:17;12.13;;;10.23;;
7813;SDS011;3952;48.364;16.022;2023-03-21T00:34:45;11.33;;;10.37;;
7813;SDS011;3952;48.364;16.022;2023-03-21T00:37:12;10.90;;;10.20;;
7813;SDS011;3952;48.364;16.022;2023-03-21T00:39:41;10.80;;;10.07;;
7813;SDS011;3952;48.364;16.022;2023-03-21T00:42:12;12.00;;;11.00;;
7813;SDS011;3952;48.364;16.022;2023-03-21T00:44:40;11.80;;;11.00;;
7813;SDS011;3952;48.364;16.022;2023-03-21T00:47:11;10.97;;;10.10;;
7813;SDS011;3952;48.364;16.022;2023-03-21T00:49:41;11.20;;;10.23;;
7813;SDS011;3952;48.364;16.022;2023-03-21T00:52:08;10.67;;;9.93;;
7813;SDS011;3952;48.364;16.022;2023-03-21T00:54:36;11.37;;;10.60;;
7813;SDS011;3952;48.364;16.022;2023-03-21T00:57:03;11.37;;;10.57;;
7813;SDS011;3952;48.364;16.022;2023-03-21T00:59:30;12.87;;;11.77;;
7813;SDS011;3952;48.364;16.022;2023-03-21T01:01:57;12.03;;;11.23;;
7813;SDS011;3952;48.364;16.022;2023-03-21T01:04:27;11.87;;;10.93;;
7813;SDS011;3952;48.364;16.022;2023-03-21T01:06:54;12.03;;;11.23;;
7813;SDS011;3952;48.364;16.022;2023-03-21T01:09:22;12.13;;;11.27;;
7813;SDS011;3952;48.364;16.022;2023-03-21T01:11:49;11.90;;;11.00;;
7813;SDS011;3952;48.364;16.022;2023-03-21T01:14:18;10.80;;;10.10;;
7813;SDS011;3952;48.364;16.022;2023-03-21T01:16:47;12.73;;;11.63;;
7813;SDS011;3952;48.364;16.022;2023-03-21T01:19:15;11.80;;;11.00;;
7813;SDS011;3952;48.364;16.022;2023-03-21T01:21:46;11.87;;;11.07;;
7813;SDS011;3952;48.364;16.022;2023-03-21T01:24:13;12.53;;;11.53;;
7813;SDS011;3952;48.364;16.022;2023-03-21T01:26:40;10.77;;;9.97;;
7813;SDS011;3952;48.364;16.022;2023-03-21T01:29:07;12.10;;;11.07;;
7813;SDS011;3952;48.364;16.022;2023-03-21T01:31:34;11.37;;;10.57;;
7813;SDS011;3952;48.364;16.022;2023-03-21T01:34:01;11.27;;;10.37;;
7813;SDS011;3952;48.364;16.022;2023-03-21T01:36:29;10.87;;;10.07;;
7813;SDS011;3952;48.364;16.022;2023-03-21T01:38:57;10.97;;;10.27;;
7813;SDS011;3952;48.364;16.022;2023-03-21T01:41:25;11.87;;;11.00;;
7813;SDS011;3952;48.364;16.022;2023-03-21T01:43:54;11.57;;;10.53;;
7813;SDS011;3952;48.364;16.022;2023-03-21T01:46:31;12.17;;;11.13;;
7813;SDS011;3952;48.364;16.022;2023-03-21T01:49:04;11.97;;;11.07;;
7813;SDS011;3952;48.364;16.022;2023-03-21T01:51:37;11.43;;;10.73;;
7813;SDS011;3952;48.364;16.022;2023-03-21T01:54:09;11.40;;;10.60;;
7813;SDS011;3952;48.364;16.022;2023-03-21T01:56:40;11.07;;;10.27;;
7813;SDS011;3952;48.364;16.022;2023-03-21T01:59:11;11.17;;;10.27;;
7813;SDS011;3952;48.364;16.022;2023-03-21T02:01:45;11.47;;;10.57;;
7813;SDS011;3952;48.364;16.022;2023-03-21T02:04:14;11.07;;;10.07;;
7813;SDS011;3952;48.364;16.022;2023-03-21T02:06:48;10.63;;;9.90;;
7813;SDS011;3952;48.364;16.022;2023-03-21T02:09:20;10.73;;;10.03;;
7813;SDS011;3952;48.364;16.022;2023-03-21T02:11:50;9.83;;;9.23;;
7813;SDS011;3952;48.364;16.022;2023-03-21T02:14:19;11.37;;;10.47;;
7813;SDS011;3952;48.364;16.022;2023-03-21T02:16:48;10.97;;;10.27;;
7813;SDS011;3952;48.364;16.022;2023-03-21T02:19:32;10.87;;;10.07;;
7813;SDS011;3952;48.364;16.022;2023-03-21T02:22:33;11.00;;;10.27;;
7813;SDS011;3952;48.364;16.022;2023-03-21T02:25:32;10.57;;;9.87;;
7813;SDS011;3952;48.364;16.022;2023-03-21T02:28:15;11.17;;;10.27;;
7813;SDS011;3952;48.364;16.022;2023-03-21T02:39:37;11.43;;;10.60;;
7813;SDS011;3952;48.364;16.022;2023-03-21T02:42:12;10.47;;;9.77;;
7813;SDS011;3952;48.364;16.022;2023-03-21T02:44:43;11.13;;;10.43;;
7813;SDS011;3952;48.364;16.022;2023-03-21T02:47:17;11.67;;;10.67;;
7813;SDS011;3952;48.364;16.022;2023-03-21T02:49:49;11.77;;;10.97;;
7813;SDS011;3952;48.364;16.022;2023-03-21T02:52:23;10.87;;;10.10;;
7813;SDS011;3952;48.364;16.022;2023-03-21T02:54:54;11.63;;;10.67;;
7813;SDS011;3952;48.364;16.022;2023-03-21T02:57:23;10.77;;;10.07;;
7813;SDS011;3952;48.364;16.022;2023-03-21T02:59:50;11.23;;;10.43;;
7813;SDS011;3952;48.364;16.022;2023-03-21T03:02:20;11.00;;;10.30;;
7813;SDS011;3952;48.364;16.022;2023-03-21T03:04:50;10.33;;;9.67;;
7813;SDS011;3952;48.364;16.022;2023-03-21T03:07:19;11.13;;;10.43;;
7813;SDS011;3952;48.364;16.022;2023-03-21T03:10:00;11.37;;;10.57;;
7813;SDS011;3952;48.364;16.022;2023-03-21T03:12:39;11.53;;;10.70;;
7813;SDS011;3952;48.364;16.022;2023-03-21T03:15:15;12.10;;;11.13;;
7813;SDS011;3952;48.364;16.022;2023-03-21T03:17:49;12.17;;;11.27;;
7813;SDS011;3952;48.364;16.022;2023-03-21T03:20:22;12.97;;;11.87;;
7813;SDS011;3952;48.364;16.022;2023-03-21T03:22:56;12.80;;;11.70;;
7813;SDS011;3952;48.364;16.022;2023-03-21T03:25:30;13.73;;;12.53;;
7813;SDS011;3952;48.364;16.022;2023-03-21T03:28:05;13.63;;;12.63;;
7813;SDS011;3952;48.364;16.022;2023-03-21T03:30:34;15.20;;;13.80;;
7813;SDS011;3952;48.364;16.022;2023-03-21T03:33:03;12.97;;;11.87;;
7813;SDS011;3952;48.364;16.022;2023-03-21T03:35:34;14.40;;;13.10;;
7813;SDS011;3952;48.364;16.022;2023-03-21T03:38:04;15.03;;;13.53;;
7813;SDS011;3952;48.364;16.022;2023-03-21T03:40:35;15.17;;;13.37;;
7813;SDS011;3952;48.364;16.022;2023-03-21T03:43:07;15.63;;;13.60;;
7813;SDS011;3952;48.364;16.022;2023-03-21T03:45:40;15.03;;;13.73;;
7813;SDS011;3952;48.364;16.022;2023-03-21T03:48:13;15.07;;;13.63;;
7813;SDS011;3952;48.364;16.022;2023-03-21T03:50:47;17.83;;;14.13;;
7813;SDS011;3952;48.364;16.022;2023-03-21T03:53:20;15.67;;;14.03;;
7813;SDS011;3952;48.364;16.022;2023-03-21T03:55:50;17.47;;;13.73;;
7813;SDS011;3952;48.364;16.022;2023-03-21T03:58:20;17.00;;;15.17;;
7813;SDS011;3952;48.364;16.022;2023-03-21T04:00:48;18.17;;;14.20;;
7813;SDS011;3952;48.364;16.022;2023-03-21T04:03:16;18.37;;;14.57;;
7813;SDS011;3952;48.364;16.022;2023-03-21T04:05:43;14.43;;;13.00;;
7813;SDS011;3952;48.364;16.022;2023-03-21T04:08:11;20.87;;;13.90;;
7813;SDS011;3952;48.364;16.022;2023-03-21T04:10:41;16.17;;;13.47;;
7813;SDS011;3952;48.364;16.022;2023-03-21T04:13:09;16.50;;;13.53;;
7813;SDS011;3952;48.364;16.022;2023-03-21T04:15:36;14.97;;;13.17;;
7813;SDS011;3952;48.364;16.022;2023-03-21T04:18:03;15.10;;;13.60;;
7813;SDS011;3952;48.364;16.022;2023-03-21T04:20:31;13.77;;;12.43;;
7813;SDS011;3952;48.364;16.022;2023-03-21T04:22:58;14.13;;;12.20;;
7813;SDS011;3952;48.364;16.022;2023-03-21T04:25:25;14.83;;;13.27;;
7813;SDS011;3952;48.364;16.022;2023-03-21T04:27:54;19.47;;;13.50;;
7813;SDS011;3952;48.364;16.022;2023-03-21T04:30:22;14.23;;;13.03;;
7813;SDS011;3952;48.364;16.022;2023-03-21T04:32:50;14.93;;;13.67;;
7813;SDS011;3952;48.364;16.022;2023-03-21T04:35:21;14.50;;;13.13;;
7813;SDS011;3952;48.364;16.022;2023-03-21T04:37:49;15.90;;;13.70;;
7813;SDS011;3952;48.364;16.022;2023-03-21T04:40:17;15.87;;;14.47;;
7813;SDS011;3952;48.364;16.022;2023-03-21T04:42:44;17.77;;;14.57;;
7813;SDS011;3952;48.364;16.022;2023-03-21T04:45:14;18.73;;;15.40;;
7813;SDS011;3952;48.364;16.022;2023-03-21T04:47:42;18.83;;;15.13;;
7813;SDS011;3952;48.364;16.022;2023-03-21T04:50:09;17.33;;;15.53;;
7813;SDS011;3952;48.364;16.022;2023-03-21T04:52:38;16.50;;;14.83;;
7813;SDS011;3952;48.364;16.022;2023-03-21T04:55:06;16.20;;;14.50;;
7813;SDS011;3952;48.364;16.022;2023-03-21T04:57:35;16.80;;;15.03;;
7813;SDS011;3952;48.364;16.022;2023-03-21T05:00:04;16.00;;;14.53;;
7813;SDS011;3952;48.364;16.022;2023-03-21T05:02:36;14.47;;;13.20;;
7813;SDS011;3952;48.364;16.022;2023-03-21T05:05:04;15.50;;;13.97;;
7813;SDS011;3952;48.364;16.022;2023-03-21T05:07:35;15.00;;;13.60;;
7813;SDS011;3952;48.364;16.022;2023-03-21T05:10:03;14.90;;;13.63;;
7813;SDS011;3952;48.364;16.022;2023-03-21T05:12:31;14.30;;;13.00;;
7813;SDS011;3952;48.364;16.022;2023-03-21T05:14:59;14.67;;;13.47;;
7813;SDS011;3952;48.364;16.022;2023-03-21T05:17:26;15.43;;;14.03;;
7813;SDS011;3952;48.364;16.022;2023-03-21T05:19:55;14.63;;;13.33;;
7813;SDS011;3952;48.364;16.022;2023-03-21T05:22:22;14.47;;;13.27;;
7813;SDS011;3952;48.364;16.022;2023-03-21T05:24:51;14.37;;;13.27;;
7813;SDS011;3952;48.364;16.022;2023-03-21T05:27:20;13.90;;;12.70;;
7813;SDS011;3952;48.364;16.022;2023-03-21T05:30:00;15.73;;;14.33;;
7813;SDS011;3952;48.364;16.022;2023-03-21T05:32:29;15.30;;;14.00;;
7813;SDS011;3952;48.364;16.022;2023-03-21T05:34:58;22.40;;;18.43;;
7813;SDS011;3952;48.364;16.022;2023-03-21T05:37:25;25.70;;;20.50;;
7813;SDS011;3952;48.364;16.022;2023-03-21T05:39:53;23.67;;;18.50;;
7813;SDS011;3952;48.364;16.022;2023-03-21T05:42:20;16.47;;;14.83;;
7813;SDS011;3952;48.364;16.022;2023-03-21T05:44:47;16.50;;;14.80;;
7813;SDS011;3952;48.364;16.022;2023-03-21T05:47:15;18.17;;;16.37;;
7813;SDS011;3952;48.364;16.022;2023-03-21T05:49:43;25.07;;;20.73;;
7813;SDS011;3952;48.364;16.022;2023-03-21T05:52:12;20.30;;;18.30;;
7813;SDS011;3952;48.364;16.022;2023-03-21T05:54:40;20.50;;;18.20;;
7813;SDS011;3952;48.364;16.022;2023-03-21T05:57:07;17.50;;;15.90;;
7813;SDS011;3952;48.364;16.022;2023-03-21T05:59:34;16.40;;;15.00;;
7813;SDS011;3952;48.364;16.022;2023-03-21T06:02:02;17.40;;;15.80;;
7813;SDS011;3952;48.364;16.022;2023-03-21T06:04:29;16.63;;;15.10;;
7813;SDS011;3952;48.364;16.022;2023-03-21T06:06:56;16.93;;;15.20;;
7813;SDS011;3952;48.364;16.022;2023-03-21T06:09:25;17.67;;;15.97;;
7813;SDS011;3952;48.364;16.022;2023-03-21T06:11:53;16.20;;;14.60;;
7813;SDS011;3952;48.364;16.022;2023-03-21T06:14:22;16.50;;;15.10;;
7813;SDS011;3952;48.364;16.022;2023-03-21T06:16:50;16.00;;;14.57;;
7813;SDS011;3952;48.364;16.022;2023-03-21T06:19:18;15.93;;;14.50;;
7813;SDS011;3952;48.364;16.022;2023-03-21T06:21:46;16.33;;;14.77;;
7813;SDS011;3952;48.364;16.022;2023-03-21T06:24:13;17.10;;;15.37;;
7813;SDS011;3952;48.364;16.022;2023-03-21T06:26:43;15.57;;;14.30;;
7813;SDS011;3952;48.364;16.022;2023-03-21T06:29:10;15.33;;;14.03;;
7813;SDS011;3952;48.364;16.022;2023-03-21T06:31:38;15.50;;;14.10;;
7813;SDS011;3952;48.364;16.022;2023-03-21T06:34:05;15.63;;;14.43;;
7813;SDS011;3952;48.364;16.022;2023-03-21T06:36:34;15.87;;;14.13;;
7813;SDS011;3952;48.364;16.022;2023-03-21T06:39:02;14.93;;;13.53;;
7813;SDS011;3952;48.364;16.022;2023-03-21T06:41:31;15.23;;;13.80;;
7813;SDS011;3952;48.364;16.022;2023-03-21T06:44:00;19.17;;;13.43;;
7813;SDS011;3952;48.364;16.022;2023-03-21T06:46:27;16.43;;;13.60;;
7813;SDS011;3952;48.364;16.022;2023-03-21T06:48:55;14.80;;;13.30;;
7813;SDS011;3952;48.364;16.022;2023-03-21T06:51:22;14.40;;;12.90;;
7813;SDS011;3952;48.364;16.022;2023-03-21T06:53:49;14.57;;;12.63;;
7813;SDS011;3952;48.364;16.022;2023-03-21T06:56:16;16.77;;;12.40;;
7813;SDS011;3952;48.364;16.022;2023-03-21T06:58:44;18.27;;;12.83;;
7813;SDS011;3952;48.364;16.022;2023-03-21T07:01:12;13.90;;;12.60;;
7813;SDS011;3952;48.364;16.022;2023-03-21T07:03:39;17.33;;;13.17;;
7813;SDS011;3952;48.364;16.022;2023-03-21T07:06:08;13.00;;;11.83;;
7813;SDS011;3952;48.364;16.022;2023-03-21T07:08:37;13.30;;;12.03;;
7813;SDS011;3952;48.364;16.022;2023-03-21T07:11:05;13.60;;;12.33;;
7813;SDS011;3952;48.364;16.022;2023-03-21T07:13:33;13.33;;;12.20;;
7813;SDS011;3952;48.364;16.022;2023-03-21T07:16:01;12.40;;;11.40;;
7813;SDS011;3952;48.364;16.022;2023-03-21T07:18:29;11.63;;;10.93;;
7813;SDS011;3952;48.364;16.022;2023-03-21T07:20:57;11.37;;;10.57;;
7813;SDS011;3952;48.364;16.022;2023-03-21T07:23:24;11.80;;;10.63;;
7813;SDS011;3952;48.364;16.022;2023-03-21T07:25:52;10.50;;;9.70;;
7813;SDS011;3952;48.364;16.022;2023-03-21T07:28:20;10.60;;;9.67;;
7813;SDS011;3952;48.364;16.022;2023-03-21T07:30:51;10.50;;;9.70;;
7813;SDS011;3952;48.364;16.022;2023-03-21T07:33:19;10.63;;;9.90;;
7813;SDS011;3952;48.364;16.022;2023-03-21T07:35:49;9.93;;;9.23;;
7813;SDS011;3952;48.364;16.022;2023-03-21T07:38:17;9.57;;;8.77;;
7813;SDS011;3952;48.364;16.022;2023-03-21T07:40:45;8.83;;;8.13;;
7813;SDS011;3952;48.364;16.022;2023-03-21T07:43:13;9.00;;;8.30;;
7813;SDS011;3952;48.364;16.022;2023-03-21T07:45:41;8.13;;;7.57;;
7813;SDS011;3952;48.364;16.022;2023-03-21T07:48:09;7.33;;;6.93;;
7813;SDS011;3952;48.364;16.022;2023-03-21T07:50:37;7.87;;;7.17;;
7813;SDS011;3952;48.364;16.022;2023-03-21T07:53:06;6.50;;;6.10;;
7813;SDS011;3952;48.364;16.022;2023-03-21T07:55:33;7.97;;;7.13;;
7813;SDS011;3952;48.364;16.022;2023-03-21T07:58:01;6.50;;;6.10;;
7813;SDS011;3952;48.364;16.022;2023-03-21T08:00:29;6.80;;;6.40;;
7813;SDS011;3952;48.364;16.022;2023-03-21T08:02:56;6.50;;;6.00;;
7813;SDS011;3952;48.364;16.022;2023-03-21T08:05:25;6.97;;;6.50;;
7813;SDS011;3952;48.364;16.022;2023-03-21T08:07:55;6.53;;;6.13;;
7813;SDS011;3952;48.364;16.022;2023-03-21T08:10:24;6.70;;;6.30;;
7813;SDS011;3952;48.364;16.022;2023-03-21T08:12:52;6.67;;;6.17;;
7813;SDS011;3952;48.364;16.022;2023-03-21T08:15:20;6.37;;;5.97;;
7813;SDS011;3952;48.364;16.022;2023-03-21T08:17:47;6.47;;;5.97;;
7813;SDS011;3952;48.364;16.022;2023-03-21T08:20:15;6.07;;;5.63;;
7813;SDS011;3952;48.364;16.022;2023-03-21T08:22:45;8.23;;;5.53;;
7813;SDS011;3952;48.364;16.022;2023-03-21T08:25:14;6.07;;;5.60;;
7813;SDS011;3952;48.364;16.022;2023-03-21T08:27:45;6.47;;;6.07;;
7813;SDS011;3952;48.364;16.022;2023-03-21T08:30:14;6.80;;;6.20;;
7813;SDS011;3952;48.364;16.022;2023-03-21T08:32:43;7.37;;;6.63;;
7813;SDS011;3952;48.364;16.022;2023-03-21T08:35:11;6.70;;;6.10;;
7813;SDS011;3952;48.364;16.022;2023-03-21T08:37:40;7.70;;;7.20;;
7813;SDS011;3952;48.364;16.022;2023-03-21T08:40:09;6.90;;;6.30;;
7813;SDS011;3952;48.364;16.022;2023-03-21T08:42:40;10.13;;;7.70;;
7813;SDS011;3952;48.364;16.022;2023-03-21T08:45:09;7.73;;;7.23;;
7813;SDS011;3952;48.364;16.022;2023-03-21T08:47:37;7.10;;;6.50;;
7813;SDS011;3952;48.364;16.022;2023-03-21T08:50:06;7.67;;;7.17;;
7813;SDS011;3952;48.364;16.022;2023-03-21T08:52:34;6.90;;;6.50;;
7813;SDS011;3952;48.364;16.022;2023-03-21T08:55:01;6.80;;;6.40;;
7813;SDS011;3952;48.364;16.022;2023-03-21T08:57:29;6.90;;;6.50;;
7813;SDS011;3952;48.364;16.022;2023-03-21T08:59:56;6.80;;;6.40;;
7813;SDS011;3952;48.364;16.022;2023-03-21T09:02:25;11.03;;;7.00;;
7813;SDS011;3952;48.364;16.022;2023-03-21T09:04:52;7.70;;;7.07;;
7813;SDS011;3952;48.364;16.022;2023-03-21T09:07:23;7.60;;;7.10;;
7813;SDS011;3952;48.364;16.022;2023-03-21T09:09:50;7.27;;;6.73;;
7813;SDS011;3952;48.364;16.022;2023-03-21T09:12:18;7.27;;;6.77;;
7813;SDS011;3952;48.364;16.022;2023-03-21T09:14:45;8.53;;;6.87;;
7813;SDS011;3952;48.364;16.022;2023-03-21T09:17:14;7.90;;;7.40;;
7813;SDS011;3952;48.364;16.022;2023-03-21T09:19:42;7.33;;;6.73;;
7813;SDS011;3952;48.364;16.022;2023-03-21T09:22:10;7.10;;;6.70;;
7813;SDS011;3952;48.364;16.022;2023-03-21T09:24:42;7.13;;;6.53;;
7813;SDS011;3952;48.364;16.022;2023-03-21T09:27:10;7.33;;;6.93;;
7813;SDS011;3952;48.364;16.022;2023-03-21T09:29:38;7.60;;;7.00;;
7813;SDS011;3952;48.364;16.022;2023-03-21T09:32:09;7.27;;;6.57;;
7813;SDS011;3952;48.364;16.022;2023-03-21T09:34:37;7.33;;;6.90;;
7813;SDS011;3952;48.364;16.022;2023-03-21T09:37:06;8.63;;;7.37;;
7813;SDS011;3952;48.364;16.022;2023-03-21T09:39:37;6.80;;;6.40;;
7813;SDS011;3952;48.364;16.022;2023-03-21T09:42:17;7.17;;;6.50;;
7813;SDS011;3952;48.364;16.022;2023-03-21T09:44:54;7.27;;;6.70;;
7813;SDS011;3952;48.364;16.022;2023-03-21T09:47:34;6.83;;;6.30;;
7813;SDS011;3952;48.364;16.022;2023-03-21T09:50:11;7.00;;;6.43;;
7813;SDS011;3952;48.364;16.022;2023-03-21T09:52:46;6.60;;;6.20;;
7813;SDS011;3952;48.364;16.022;2023-03-21T09:55:17;7.00;;;6.60;;
7813;SDS011;3952;48.364;16.022;2023-03-21T09:57:47;7.17;;;6.60;;
7813;SDS011;3952;48.364;16.022;2023-03-21T10:00:21;7.30;;;6.90;;
7813;SDS011;3952;48.364;16.022;2023-03-21T10:02:53;7.93;;;7.13;;
7813;SDS011;3952;48.364;16.022;2023-03-21T10:05:26;6.87;;;6.47;;
7813;SDS011;3952;48.364;16.022;2023-03-21T10:07:58;9.23;;;6.80;;
7813;SDS011;3952;48.364;16.022;2023-03-21T10:10:31;7.37;;;6.87;;
7813;SDS011;3952;48.364;16.022;2023-03-21T10:13:02;7.63;;;7.13;;
7813;SDS011;3952;48.364;16.022;2023-03-21T10:15:36;7.63;;;7.13;;
7813;SDS011;3952;48.364;16.022;2023-03-21T10:18:04;7.43;;;6.93;;
7813;SDS011;3952;48.364;16.022;2023-03-21T10:20:33;6.93;;;6.53;;
7813;SDS011;3952;48.364;16.022;2023-03-21T10:23:04;7.20;;;6.60;;
7813;SDS011;3952;48.364;16.022;2023-03-21T10:25:34;7.00;;;6.60;;
7813;SDS011;3952;48.364;16.022;2023-03-21T10:28:05;7.27;;;6.57;;
7813;SDS011;3952;48.364;16.022;2023-03-21T10:30:36;8.10;;;6.90;;
7813;SDS011;3952;48.364;16.022;2023-03-21T10:33:07;6.90;;;6.30;;
7813;SDS011;3952;48.364;16.022;2023-03-21T10:35:39;7.00;;;6.50;;
7813;SDS011;3952;48.364;16.022;2023-03-21T10:38:13;6.77;;;6.37;;
7813;SDS011;3952;48.364;16.022;2023-03-21T10:40:43;6.60;;;6.20;;
7813;SDS011;3952;48.364;16.022;2023-03-21T10:43:17;6.93;;;6.30;;
7813;SDS011;3952;48.364;16.022;2023-03-21T10:46:05;8.83;;;6.93;;
7813;SDS011;3952;48.364;16.022;2023-03-21T10:48:37;6.37;;;5.97;;
7813;SDS011;3952;48.364;16.022;2023-03-21T10:51:07;7.03;;;6.33;;
7813;SDS011;3952;48.364;16.022;2023-03-21T10:53:37;6.93;;;6.47;;
7813;SDS011;3952;48.364;16.022;2023-03-21T10:56:07;5.70;;;5.40;;
7813;SDS011;3952;48.364;16.022;2023-03-21T10:58:37;6.70;;;6.20;;
7813;SDS011;3952;48.364;16.022;2023-03-21T11:01:09;7.37;;;5.90;;
7813;SDS011;3952;48.364;16.022;2023-03-21T11:03:41;6.50;;;5.97;;
7813;SDS011;3952;48.364;16.022;2023-03-21T11:06:12;5.50;;;5.20;;
7813;SDS011;3952;48.364;16.022;2023-03-21T11:08:45;4.80;;;4.47;;
7813;SDS011;3952;48.364;16.022;2023-03-21T11:11:23;4.30;;;4.03;;
7813;SDS011;3952;48.364;16.022;2023-03-21T11:13:57;4.30;;;4.10;;
7813;SDS011;3952;48.364;16.022;2023-03-21T11:16:29;4.47;;;4.23;;
7813;SDS011;3952;48.364;16.022;2023-03-21T11:19:00;4.13;;;3.93;;
7813;SDS011;3952;48.364;16.022;2023-03-21T11:21:34;4.40;;;4.10;;
7813;SDS011;3952;48.364;16.022;2023-03-21T11:24:03;4.80;;;4.43;;
7813;SDS011;3952;48.364;16.022;2023-03-21T11:26:32;4.20;;;4.00;;
7813;SDS011;3952;48.364;16.022;2023-03-21T11:29:08;4.63;;;4.43;;
7813;SDS011;3952;48.364;16.022;2023-03-21T11:31:45;4.47;;;4.17;;
7813;SDS011;3952;48.364;16.022;2023-03-21T11:34:22;4.63;;;4.33;;
7813;SDS011;3952;48.364;16.022;2023-03-21T11:36:52;4.63;;;4.30;;
7813;SDS011;3952;48.364;16.022;2023-03-21T11:39:36;4.40;;;4.20;;
7813;SDS011;3952;48.364;16.022;2023-03-21T11:42:08;3.93;;;3.73;;
7813;SDS011;3952;48.364;16.022;2023-03-21T11:44:56;4.50;;;4.20;;
7813;SDS011;3952;48.364;16.022;2023-03-21T11:47:27;4.10;;;3.90;;
7813;SDS011;3952;48.364;16.022;2023-03-21T11:49:55;4.00;;;3.80;;
7813;SDS011;3952;48.364;16.022;2023-03-21T11:52:25;3.73;;;3.53;;
7813;SDS011;3952;48.364;16.022;2023-03-21T11:55:10;4.00;;;3.80;;
7813;SDS011;3952;48.364;16.022;2023-03-21T11:57:50;4.23;;;3.93;;
7813;SDS011;3952;48.364;16.022;2023-03-21T12:00:28;3.57;;;3.37;;
7813;SDS011;3952;48.364;16.022;2023-03-21T12:03:12;4.70;;;3.10;;
7813;SDS011;3952;48.364;16.022;2023-03-21T12:05:57;8.27;;;5.20;;
7813;SDS011;3952;48.364;16.022;2023-03-21T12:08:31;4.30;;;4.00;;
7813;SDS011;3952;48.364;16.022;2023-03-21T12:11:12;3.93;;;3.73;;
7813;SDS011;3952;48.364;16.022;2023-03-21T12:13:51;4.53;;;3.83;;
7813;SDS011;3952;48.364;16.022;2023-03-21T12:16:35;4.13;;;3.93;;
7813;SDS011;3952;48.364;16.022;2023-03-21T12:19:16;4.60;;;4.30;;
7813;SDS011;3952;48.364;16.022;2023-03-21T12:22:03;4.43;;;4.20;;
7813;SDS011;3952;48.364;16.022;2023-03-21T12:24:39;4.60;;;4.30;;
7813;SDS011;3952;48.364;16.022;2023-03-21T12:27:15;3.80;;;3.60;;
7813;SDS011;3952;48.364;16.022;2023-03-21T12:29:57;4.07;;;3.57;;
7813;SDS011;3952;48.364;16.022;2023-03-21T12:32:39;3.80;;;3.50;;
7813;SDS011;3952;48.364;16.022;2023-03-21T12:35:26;4.27;;;3.87;;
7813;SDS011;3952;48.364;16.022;2023-03-21T12:38:07;6.13;;;3.43;;
7813;SDS011;3952;48.364;16.022;2023-03-21T12:43:37;3.60;;;3.37;;
7813;SDS011;3952;48.364;16.022;2023-03-21T12:46:10;2.80;;;2.70;;
7813;SDS011;3952;48.364;16.022;2023-03-21T12:48:42;3.00;;;2.90;;
7813;SDS011;3952;48.364;16.022;2023-03-21T12:51:14;3.60;;;3.40;;
7813;SDS011;3952;48.364;16.022;2023-03-21T12:53:55;2.73;;;2.63;;
7813;SDS011;3952;48.364;16.022;2023-03-21T12:56:28;3.37;;;3.13;;
7813;SDS011;3952;48.364;16.022;2023-03-21T12:59:02;3.47;;;3.37;;
7813;SDS011;3952;48.364;16.022;2023-03-21T13:01:37;3.03;;;2.93;;
7813;SDS011;3952;48.364;16.022;2023-03-21T13:04:19;3.07;;;2.90;;
7813;SDS011;3952;48.364;16.022;2023-03-21T13:07:00;2.77;;;2.67;;
7813;SDS011;3952;48.364;16.022;2023-03-21T13:09:33;2.10;;;2.00;;
7813;SDS011;3952;48.364;16.022;2023-03-21T13:12:04;2.33;;;2.10;;
7813;SDS011;3952;48.364;16.022;2023-03-21T13:14:42;2.57;;;2.00;;
7813;SDS011;3952;48.364;16.022;2023-03-21T13:17:19;2.37;;;2.20;;
7813;SDS011;3952;48.364;16.022;2023-03-21T13:19:53;2.43;;;2.33;;
7813;SDS011;3952;48.364;16.022;2023-03-21T13:22:29;2.60;;;2.40;;
7813;SDS011;3952;48.364;16.022;2023-03-21T13:24:57;1.90;;;1.80;;
7813;SDS011;3952;48.364;16.022;2023-03-21T13:27:29;2.23;;;2.03;;
7813;SDS011;3952;48.364;16.022;2023-03-21T13:29:59;1.63;;;1.53;;
7813;SDS011;3952;48.364;16.022;2023-03-21T13:32:31;2.03;;;1.93;;
7813;SDS011;3952;48.364;16.022;2023-03-21T13:35:01;2.97;;;2.87;;
7813;SDS011;3952;48.364;16.022;2023-03-21T13:37:39;2.90;;;2.70;;
7813;SDS011;3952;48.364;16.022;2023-03-21T13:40:19;2.27;;;2.17;;
7813;SDS011;3952;48.364;16.022;2023-03-21T13:42:50;1.93;;;1.60;;
7813;SDS011;3952;48.364;16.022;2023-03-21T13:45:24;1.87;;;1.77;;
7813;SDS011;3952;48.364;16.022;2023-03-21T13:47:56;1.90;;;1.80;;
7813;SDS011;3952;48.364;16.022;2023-03-21T13:50:26;2.07;;;1.90;;
7813;SDS011;3952;48.364;16.022;2023-03-21T13:53:19;1.70;;;1.60;;
7813;SDS011;3952;48.364;16.022;2023-03-21T13:55:57;1.70;;;1.60;;
7813;SDS011;3952;48.364;16.022;2023-03-21T13:58:49;1.90;;;1.70;;
7813;SDS011;3952;48.364;16.022;2023-03-21T14:01:31;1.70;;;1.60;;
7813;SDS011;3952;48.364;16.022;2023-03-21T14:04:06;1.87;;;1.77;;
7813;SDS011;3952;48.364;16.022;2023-03-21T14:06:40;1.70;;;1.60;;
7813;SDS011;3952;48.364;16.022;2023-03-21T14:09:11;1.60;;;1.50;;
7813;SDS011;3952;48.364;16.022;2023-03-21T14:11:45;1.53;;;1.50;;
7813;SDS011;3952;48.364;16.022;2023-03-21T14:14:15;1.47;;;1.47;;
7813;SDS011;3952;48.364;16.022;2023-03-21T14:16:45;1.70;;;1.60;;
7813;SDS011;3952;48.364;16.022;2023-03-21T14:19:13;1.40;;;1.20;;
7813;SDS011;3952;48.364;16.022;2023-03-21T14:21:45;2.00;;;1.57;;
7813;SDS011;3952;48.364;16.022;2023-03-21T14:24:15;1.97;;;1.87;;
7813;SDS011;3952;48.364;16.022;2023-03-21T14:26:44;2.30;;;2.10;;
7813;SDS011;3952;48.364;16.022;2023-03-21T14:29:16;1.20;;;1.20;;
7813;SDS011;3952;48.364;16.022;2023-03-21T14:31:48;0.93;;;0.93;;
7813;SDS011;3952;48.364;16.022;2023-03-21T14:34:15;0.90;;;0.90;;
7813;SDS011;3952;48.364;16.022;2023-03-21T14:36:43;1.10;;;1.10;;
7813;SDS011;3952;48.364;16.022;2023-03-21T14:39:12;1.13;;;1.13;;
7813;SDS011;3952;48.364;16.022;2023-03-21T14:41:43;1.43;;;0.93;;
7813;SDS011;3952;48.364;16.022;2023-03-21T14:44:20;1.40;;;1.30;;
7813;SDS011;3952;48.364;16.022;2023-03-21T14:46:59;1.40;;;1.40;;
7813;SDS011;3952;48.364;16.022;2023-03-21T14:49:29;1.23;;;1.17;;
7813;SDS011;3952;48.364;16.022;2023-03-21T14:51:58;1.30;;;1.20;;
7813;SDS011;3952;48.364;16.022;2023-03-21T14:54:27;1.40;;;1.40;;
7813;SDS011;3952;48.364;16.022;2023-03-21T14:56:58;1.03;;;1.03;;
7813;SDS011;3952;48.364;16.022;2023-03-21T14:59:28;1.00;;;1.00;;
7813;SDS011;3952;48.364;16.022;2023-03-21T15:02:01;0.87;;;0.87;;
7813;SDS011;3952;48.364;16.022;2023-03-21T15:04:33;1.87;;;0.83;;
7813;SDS011;3952;48.364;16.022;2023-03-21T15:07:00;1.23;;;1.23;;
7813;SDS011;3952;48.364;16.022;2023-03-21T15:09:32;1.63;;;1.40;;
7813;SDS011;3952;48.364;16.022;2023-03-21T15:12:00;1.00;;;0.97;;
7813;SDS011;3952;48.364;16.022;2023-03-21T15:14:34;1.10;;;1.10;;
7813;SDS011;3952;48.364;16.022;2023-03-21T15:17:04;1.07;;;0.97;;
7813;SDS011;3952;48.364;16.022;2023-03-21T15:19:34;0.93;;;0.93;;
7813;SDS011;3952;48.364;16.022;2023-03-21T15:22:08;1.20;;;1.10;;